createdAt,value
2023-03-17T00:01:51.638Z,-3.15
2023-03-17T00:04:19.644Z,-3.19
2023-03-17T00:06:47.664Z,-3.21
2023-03-17T00:09:18.912Z,-3.20
2023-03-17T00:11:47.263Z,-3.23
2023-03-17T00:14:14.758Z,-3.24
2023-03-17T00:16:44.467Z,-3.23
2023-03-17T00:19:17.279Z,-3.24
2023-03-17T00:21:46.130Z,-3.21
2023-03-17T00:24:15.060Z,-3.22
2023-03-17T00:26:43.464Z,-3.24
2023-03-17T00:29:10.930Z,-3.23
2023-03-17T00:31:39.673Z,-3.21
2023-03-17T00:34:08.176Z,-3.23
2023-03-17T00:36:36.045Z,-3.20
2023-03-17T00:39:06.563Z,-3.22
2023-03-17T00:41:33.836Z,-3.25
2023-03-17T00:44:00.757Z,-3.23
2023-03-17T00:46:36.085Z,-3.26
2023-03-17T00:49:12.282Z,-3.29
2023-03-17T00:51:39.497Z,-3.30
2023-03-17T00:54:07.027Z,-3.35
2023-03-17T00:56:34.219Z,-3.35
2023-03-17T00:59:01.576Z,-3.37
2023-03-17T01:01:28.733Z,-3.39
2023-03-17T01:03:56.688Z,-3.44
2023-03-17T01:06:24.018Z,-3.47
2023-03-17T01:08:51.160Z,-3.49
2023-03-17T01:11:21.603Z,-3.56
2023-03-17T01:13:48.491Z,-3.64
2023-03-17T01:16:15.887Z,-3.66
2023-03-17T01:18:43.658Z,-3.69
2023-03-17T01:21:11.049Z,-3.72
2023-03-17T01:23:38.075Z,-3.74
2023-03-17T01:26:06.699Z,-3.79
2023-03-17T01:28:34.626Z,-3.82
2023-03-17T01:31:02.870Z,-3.85
2023-03-17T01:33:29.830Z,-3.88
2023-03-17T01:35:57.601Z,-3.89
2023-03-17T01:38:24.825Z,-3.92
2023-03-17T01:40:52.390Z,-3.99
2023-03-17T01:43:30.888Z,-4.03
2023-03-17T01:46:22.456Z,-4.06
2023-03-17T01:49:10.651Z,-4.11
2023-03-17T01:51:51.495Z,-4.14
2023-03-17T01:54:43.028Z,-4.20
2023-03-17T01:57:18.938Z,-4.23
2023-03-17T01:59:52.513Z,-4.28
2023-03-17T02:02:24.948Z,-4.31
2023-03-17T02:04:52.507Z,-4.29
2023-03-17T02:07:22.247Z,-4.33
2023-03-17T02:09:49.726Z,-4.33
2023-03-17T02:12:16.980Z,-4.33
2023-03-17T02:14:44.304Z,-4.35
2023-03-17T02:17:11.623Z,-4.34
2023-03-17T02:19:39.028Z,-4.33
2023-03-17T02:22:06.632Z,-4.33
2023-03-17T02:24:37.987Z,-4.33
2023-03-17T02:27:13.058Z,-4.31
2023-03-17T02:29:40.509Z,-4.27
2023-03-17T02:32:08.055Z,-4.19
2023-03-17T02:34:34.955Z,-4.11
2023-03-17T02:37:02.224Z,-4.08
2023-03-17T02:39:29.146Z,-4.08
2023-03-17T02:41:56.814Z,-4.14
2023-03-17T02:44:24.237Z,-4.21
2023-03-17T02:46:51.957Z,-4.27
2023-03-17T02:49:19.428Z,-4.38
2023-03-17T02:51:47.611Z,-4.42
2023-03-17T02:54:14.584Z,-4.44
2023-03-17T02:56:42.085Z,-4.36
2023-03-17T02:59:09.797Z,-4.27
2023-03-17T03:01:38.916Z,-4.28
2023-03-17T03:04:07.288Z,-4.30
2023-03-17T03:06:34.826Z,-4.36
2023-03-17T03:09:02.005Z,-4.38
2023-03-17T03:11:29.492Z,-4.36
2023-03-17T03:13:56.422Z,-4.34
2023-03-17T03:16:23.642Z,-4.33
2023-03-17T03:18:50.643Z,-4.32
2023-03-17T03:21:17.878Z,-4.28
2023-03-17T03:23:44.840Z,-4.27
2023-03-17T03:26:12.240Z,-4.31
2023-03-17T03:28:39.432Z,-4.32
2023-03-17T03:31:07.554Z,-4.36
2023-03-17T03:33:35.017Z,-4.38
2023-03-17T03:36:02.472Z,-4.36
2023-03-17T03:38:29.773Z,-4.39
2023-03-17T03:40:57.021Z,-4.39
2023-03-17T03:43:24.305Z,-4.42
2023-03-17T03:45:52.248Z,-4.44
2023-03-17T03:48:19.232Z,-4.48
2023-03-17T03:50:46.688Z,-4.48
2023-03-17T03:53:14.383Z,-4.49
2023-03-17T03:55:41.835Z,-4.54
2023-03-17T03:58:08.987Z,-4.58
2023-03-17T04:00:37.302Z,-4.67
2023-03-17T04:03:04.427Z,-4.76
2023-03-17T04:05:31.897Z,-4.79
2023-03-17T04:07:58.814Z,-4.87
2023-03-17T04:10:26.628Z,-4.90
2023-03-17T04:12:53.671Z,-4.93
2023-03-17T04:15:21.254Z,-4.98
2023-03-17T04:17:48.124Z,-5.01
2023-03-17T04:20:16.501Z,-5.07
2023-03-17T04:22:44.274Z,-5.08
2023-03-17T04:25:14.583Z,-5.09
2023-03-17T04:27:43.027Z,-5.08
2023-03-17T04:30:17.077Z,-5.08
2023-03-17T04:32:44.979Z,-5.06
2023-03-17T04:35:18.387Z,-5.03
2023-03-17T04:37:46.000Z,-5.06
2023-03-17T04:40:14.120Z,-5.06
2023-03-17T04:42:41.113Z,-5.06
2023-03-17T04:45:11.313Z,-5.04
2023-03-17T04:47:38.654Z,-5.01
2023-03-17T04:50:08.147Z,-4.95
2023-03-17T04:52:36.848Z,-4.86
2023-03-17T04:55:05.829Z,-4.72
2023-03-17T04:57:32.977Z,-4.54
2023-03-17T05:00:00.365Z,-4.37
2023-03-17T05:02:27.433Z,-4.15
2023-03-17T05:04:54.731Z,-3.91
2023-03-17T05:07:21.781Z,-3.62
2023-03-17T05:09:49.079Z,-3.29
2023-03-17T05:12:16.036Z,-2.94
2023-03-17T05:14:43.331Z,-2.58
2023-03-17T05:17:10.315Z,-2.21
2023-03-17T05:19:37.572Z,-1.83
2023-03-17T05:22:04.489Z,-1.55
2023-03-17T05:24:31.663Z,-1.39
2023-03-17T05:26:58.536Z,-1.32
2023-03-17T05:29:25.837Z,-1.13
2023-03-17T05:31:52.769Z,-0.86
2023-03-17T05:34:20.332Z,-0.60
2023-03-17T05:36:47.220Z,-0.29
2023-03-17T05:39:14.754Z,0.06
2023-03-17T05:41:41.716Z,0.40
2023-03-17T05:44:08.969Z,0.75
2023-03-17T05:46:35.900Z,1.11
2023-03-17T05:49:03.807Z,1.41
2023-03-17T05:51:30.729Z,1.65
2023-03-17T05:53:58.475Z,1.87
2023-03-17T05:56:26.943Z,2.23
2023-03-17T05:58:54.240Z,2.67
2023-03-17T06:01:21.181Z,2.95
2023-03-17T06:03:50.131Z,3.18
2023-03-17T06:06:17.081Z,3.47
2023-03-17T06:08:44.756Z,3.75
2023-03-17T06:11:12.863Z,3.82
2023-03-17T06:13:40.124Z,3.57
2023-03-17T06:16:07.818Z,3.55
2023-03-17T06:18:35.883Z,3.69
2023-03-17T06:21:02.732Z,3.96
2023-03-17T06:23:29.892Z,4.22
2023-03-17T06:25:57.113Z,4.64
2023-03-17T06:28:24.280Z,5.22
2023-03-17T06:30:51.309Z,5.82
2023-03-17T06:33:19.269Z,6.14
2023-03-17T06:35:46.915Z,6.15
2023-03-17T06:38:14.144Z,5.90
2023-03-17T06:40:41.550Z,6.12
2023-03-17T06:43:09.342Z,6.57
2023-03-17T06:45:36.253Z,6.82
2023-03-17T06:48:03.730Z,6.78
2023-03-17T06:50:30.954Z,7.01
2023-03-17T06:52:58.215Z,7.32
2023-03-17T06:55:25.297Z,7.97
2023-03-17T06:57:52.642Z,8.58
2023-03-17T07:00:21.215Z,9.03
2023-03-17T07:02:49.712Z,9.39
2023-03-17T07:05:16.738Z,9.40
2023-03-17T07:07:44.586Z,9.51
2023-03-17T07:10:13.835Z,9.75
2023-03-17T07:12:41.442Z,10.07
2023-03-17T07:15:09.381Z,10.71
2023-03-17T07:17:36.571Z,11.52
2023-03-17T07:20:03.776Z,12.20
2023-03-17T07:22:31.092Z,12.90
2023-03-17T07:24:58.154Z,13.69
2023-03-17T07:27:26.561Z,14.33
2023-03-17T07:29:53.709Z,14.92
2023-03-17T07:32:21.174Z,15.55
2023-03-17T07:34:48.086Z,15.98
2023-03-17T07:37:15.458Z,16.25
2023-03-17T07:39:42.695Z,16.36
2023-03-17T07:42:15.405Z,16.29
2023-03-17T07:44:42.298Z,16.61
2023-03-17T07:47:11.459Z,17.23
2023-03-17T07:49:41.962Z,17.58
2023-03-17T07:52:11.250Z,18.04
2023-03-17T07:54:42.273Z,18.26
2023-03-17T07:57:11.603Z,18.31
2023-03-17T07:59:40.041Z,18.30
2023-03-17T08:02:07.544Z,18.29
2023-03-17T08:04:35.805Z,18.46
2023-03-17T08:07:03.311Z,18.42
2023-03-17T08:09:30.237Z,18.62
2023-03-17T08:11:57.725Z,19.06
2023-03-17T08:14:24.968Z,19.38
2023-03-17T08:16:54.250Z,19.70
2023-03-17T08:19:22.153Z,19.75
2023-03-17T08:21:49.339Z,20.20
2023-03-17T08:24:16.633Z,20.49
2023-03-17T08:26:44.026Z,20.13
2023-03-17T08:29:10.964Z,19.42
2023-03-17T08:31:38.271Z,18.96
2023-03-17T08:34:05.298Z,18.60
2023-03-17T08:36:32.552Z,18.53
2023-03-17T08:38:59.426Z,18.24
2023-03-17T08:41:28.345Z,18.43
2023-03-17T08:43:56.247Z,19.08
2023-03-17T08:46:29.264Z,19.87
2023-03-17T08:51:30.530Z,20.05
2023-03-17T08:54:01.317Z,20.01
2023-03-17T08:56:28.921Z,20.39
2023-03-17T08:58:56.441Z,20.35
2023-03-17T09:01:24.631Z,19.34
2023-03-17T09:03:53.507Z,17.82
2023-03-17T09:06:21.413Z,16.18
2023-03-17T09:08:55.355Z,15.20
2023-03-17T09:11:26.162Z,14.68
2023-03-17T09:13:53.808Z,14.42
2023-03-17T09:16:23.307Z,14.77
2023-03-17T09:18:50.377Z,15.34
2023-03-17T09:21:17.968Z,16.25
2023-03-17T09:23:44.847Z,16.89
2023-03-17T09:26:12.804Z,17.19
2023-03-17T09:28:39.933Z,16.92
2023-03-17T09:31:11.628Z,17.18
2023-03-17T09:33:40.698Z,17.39
2023-03-17T09:36:08.876Z,16.28
2023-03-17T09:38:36.205Z,16.14
2023-03-17T09:41:36.393Z,16.77
2023-03-17T09:44:20.005Z,16.02
2023-03-17T09:47:02.579Z,16.02
2023-03-17T09:49:45.558Z,16.38
2023-03-17T09:52:16.013Z,16.51
2023-03-17T09:54:45.819Z,16.89
2023-03-17T09:57:21.295Z,17.75
2023-03-17T09:59:52.305Z,18.14
2023-03-17T10:02:27.177Z,17.80
2023-03-17T10:04:54.207Z,16.00
2023-03-17T10:07:28.689Z,14.59
2023-03-17T10:10:05.244Z,13.35
2023-03-17T10:12:54.256Z,13.33
2023-03-17T10:15:27.910Z,13.78
2023-03-17T10:17:55.452Z,14.04
2023-03-17T10:20:33.277Z,13.82
2023-03-17T10:23:08.460Z,12.98
2023-03-17T10:25:36.674Z,12.05
2023-03-17T10:28:27.687Z,11.54
2023-03-17T10:31:14.483Z,11.66
2023-03-17T10:33:42.437Z,11.81
2023-03-17T10:36:10.719Z,12.17
2023-03-17T10:38:37.992Z,12.73
2023-03-17T10:41:12.435Z,13.03
2023-03-17T10:43:48.618Z,13.87
2023-03-17T10:46:22.388Z,14.84
2023-03-17T10:48:56.579Z,15.34
2023-03-17T10:51:35.662Z,14.97
2023-03-17T10:54:11.863Z,15.09
2023-03-17T10:56:42.509Z,15.34
2023-03-17T10:59:19.513Z,16.02
2023-03-17T11:01:56.440Z,17.00
2023-03-17T11:04:35.670Z,16.10
2023-03-17T11:07:10.882Z,15.39
2023-03-17T11:09:38.163Z,14.31
2023-03-17T11:12:23.056Z,13.61
2023-03-17T11:14:50.509Z,13.65
2023-03-17T11:17:55.842Z,14.20
2023-03-17T11:20:42.236Z,13.57
2023-03-17T11:23:22.513Z,13.06
2023-03-17T11:26:02.008Z,13.84
2023-03-17T11:28:31.150Z,14.08
2023-03-17T11:31:30.171Z,14.46
2023-03-17T11:34:20.050Z,14.70
2023-03-17T11:37:16.422Z,15.15
2023-03-17T11:40:01.203Z,14.59
2023-03-17T11:43:16.397Z,13.76
2023-03-17T11:46:04.875Z,12.77
2023-03-17T11:48:57.436Z,12.53
2023-03-17T11:51:47.333Z,12.51
2023-03-17T11:54:28.854Z,12.57
2023-03-17T11:57:02.988Z,12.51
2023-03-17T11:59:42.216Z,11.86
2023-03-17T12:02:31.263Z,12.21
2023-03-17T12:05:15.881Z,12.74
2023-03-17T12:07:53.328Z,12.00
2023-03-17T12:10:31.045Z,12.17
2023-03-17T12:13:08.092Z,12.15
2023-03-17T12:15:56.859Z,12.12
2023-03-17T12:18:32.888Z,12.14
2023-03-17T12:21:23.475Z,12.88
2023-03-17T12:23:58.626Z,13.76
2023-03-17T12:26:33.607Z,14.25
2023-03-17T12:29:04.285Z,13.30
2023-03-17T12:31:35.408Z,13.49
2023-03-17T12:34:57.071Z,13.17
2023-03-17T12:37:27.768Z,12.85
2023-03-17T12:40:00.888Z,12.58
2023-03-17T12:43:21.912Z,12.82
2023-03-17T12:46:11.862Z,12.53
2023-03-17T12:49:10.321Z,11.74
2023-03-17T12:51:52.382Z,11.26
2023-03-17T12:54:29.054Z,11.34
2023-03-17T12:57:06.622Z,11.63
2023-03-17T12:59:36.386Z,11.84
2023-03-17T13:02:18.232Z,11.78
2023-03-17T13:04:58.150Z,11.34
2023-03-17T13:07:48.211Z,11.22
2023-03-17T13:10:20.851Z,11.35
2023-03-17T13:12:47.619Z,11.50
2023-03-17T13:15:36.344Z,11.98
2023-03-17T13:18:12.365Z,12.36
2023-03-17T13:20:44.961Z,12.16
2023-03-17T13:23:11.794Z,12.43
2023-03-17T13:25:41.913Z,12.32
2023-03-17T13:28:12.116Z,11.55
2023-03-17T13:30:39.478Z,11.23
2023-03-17T13:33:09.797Z,10.97
2023-03-17T13:35:42.235Z,10.47
2023-03-17T13:38:27.399Z,10.32
2023-03-17T13:41:38.252Z,10.17
2023-03-17T13:44:18.546Z,10.28
2023-03-17T13:46:48.679Z,10.13
2023-03-17T13:53:06.119Z,9.20
2023-03-17T13:55:42.146Z,9.08
2023-03-17T13:58:11.296Z,9.01
2023-03-17T14:00:46.124Z,8.92
2023-03-17T14:03:57.843Z,8.52
2023-03-17T14:06:31.391Z,8.26
2023-03-17T14:09:03.010Z,8.13
2023-03-17T14:11:36.670Z,7.94
2023-03-17T14:14:36.634Z,7.83
2023-03-17T14:17:25.307Z,7.91
2023-03-17T14:20:21.013Z,7.82
2023-03-17T14:22:57.408Z,7.89
2023-03-17T14:25:36.232Z,7.89
2023-03-17T14:28:11.170Z,7.77
2023-03-17T14:30:38.928Z,7.53
2023-03-17T14:33:12.132Z,7.40
2023-03-17T14:35:44.597Z,7.36
2023-03-17T14:38:25.432Z,7.41
2023-03-17T14:41:01.707Z,7.48
2023-03-17T14:43:29.029Z,7.53
2023-03-17T14:46:08.181Z,7.50
2023-03-17T14:48:38.125Z,7.49
2023-03-17T14:51:33.795Z,7.40
2023-03-17T14:54:04.247Z,7.43
2023-03-17T14:56:41.137Z,7.46
2023-03-17T14:59:17.276Z,7.42
2023-03-17T15:01:49.455Z,7.39
2023-03-17T15:04:34.955Z,7.31
2023-03-17T15:07:05.293Z,7.30
2023-03-17T15:09:40.743Z,7.18
2023-03-17T15:12:21.498Z,7.15
2023-03-17T15:14:52.353Z,7.12
2023-03-17T15:17:23.202Z,6.96
2023-03-17T15:19:53.819Z,6.88
2023-03-17T15:23:03.207Z,6.81
2023-03-17T15:25:43.351Z,6.80
2023-03-17T15:28:11.484Z,6.81
2023-03-17T15:30:49.990Z,6.75
2023-03-17T15:33:29.232Z,6.62
2023-03-17T15:35:57.255Z,6.61
2023-03-17T15:38:24.949Z,6.61
2023-03-17T15:40:52.474Z,6.60
2023-03-17T15:43:23.681Z,6.54
2023-03-17T15:46:07.603Z,6.49
2023-03-17T15:48:39.328Z,6.41
2023-03-17T15:51:07.349Z,6.42
2023-03-17T15:53:34.554Z,6.35
2023-03-17T15:56:01.856Z,6.35
2023-03-17T15:58:28.774Z,6.27
2023-03-17T16:00:59.920Z,6.22
2023-03-17T16:03:37.157Z,6.23
2023-03-17T16:06:13.502Z,6.21
2023-03-17T16:08:40.358Z,6.12
2023-03-17T16:11:14.755Z,6.07
2023-03-17T16:13:41.750Z,6.01
2023-03-17T16:16:16.972Z,5.96
2023-03-17T16:18:46.971Z,5.88
2023-03-17T16:21:14.502Z,5.80
2023-03-17T16:23:41.578Z,5.72
2023-03-17T16:26:15.384Z,5.65
2023-03-17T16:28:44.757Z,5.55
2023-03-17T16:31:16.607Z,5.45
2023-03-17T16:33:43.559Z,5.38
2023-03-17T16:36:16.208Z,5.28
2023-03-17T16:38:43.818Z,5.26
2023-03-17T16:41:19.250Z,5.20
2023-03-17T16:43:51.201Z,5.17
2023-03-17T16:46:21.083Z,5.15
2023-03-17T16:48:49.630Z,5.03
2023-03-17T16:51:17.582Z,4.99
2023-03-17T16:53:45.312Z,4.98
2023-03-17T16:56:21.566Z,4.92
2023-03-17T16:58:48.814Z,4.88
2023-03-17T17:01:19.994Z,4.83
2023-03-17T17:03:47.713Z,4.77
2023-03-17T17:06:15.629Z,4.74
2023-03-17T17:08:46.858Z,4.70
2023-03-17T17:11:15.594Z,4.60
2023-03-17T17:13:44.613Z,4.53
2023-03-17T17:16:17.726Z,4.43
2023-03-17T17:18:44.685Z,4.42
2023-03-17T17:21:11.913Z,4.46
2023-03-17T17:23:38.853Z,4.47
2023-03-17T17:26:06.283Z,4.48
2023-03-17T17:28:33.362Z,4.49
2023-03-17T17:31:01.016Z,4.45
2023-03-17T17:33:28.017Z,4.49
2023-03-17T17:38:28.746Z,4.53
2023-03-17T17:40:57.937Z,4.53
2023-03-17T17:43:25.255Z,4.55
2023-03-17T17:45:53.174Z,4.54
2023-03-17T17:48:22.825Z,4.58
2023-03-17T17:50:51.371Z,4.60
2023-03-17T17:53:18.939Z,4.62
2023-03-17T17:55:48.493Z,4.62
2023-03-17T17:58:16.724Z,4.60
2023-03-17T18:00:44.198Z,4.59
2023-03-17T18:03:11.463Z,4.61
2023-03-17T18:05:38.973Z,4.62
2023-03-17T18:08:06.705Z,4.68
2023-03-17T18:10:34.648Z,4.65
2023-03-17T18:13:01.901Z,4.58
2023-03-17T18:15:29.233Z,4.61
2023-03-17T18:17:56.582Z,4.54
2023-03-17T18:20:24.578Z,4.59
2023-03-17T18:22:52.386Z,4.60
2023-03-17T18:25:20.310Z,4.57
2023-03-17T18:27:47.844Z,4.56
2023-03-17T18:30:23.605Z,4.55
2023-03-17T18:32:53.839Z,4.53
2023-03-17T18:35:22.862Z,4.51
2023-03-17T18:37:50.937Z,4.52
2023-03-17T18:40:19.386Z,4.52
2023-03-17T18:42:47.030Z,4.52
2023-03-17T18:45:14.728Z,4.46
2023-03-17T18:47:42.237Z,4.48
2023-03-17T18:50:12.961Z,4.49
2023-03-17T18:52:41.565Z,4.48
2023-03-17T18:55:10.289Z,4.49
2023-03-17T18:57:37.225Z,4.49
2023-03-17T19:00:07.012Z,4.49
2023-03-17T19:02:34.027Z,4.51
2023-03-17T19:05:01.621Z,4.49
2023-03-17T19:07:28.585Z,4.52
2023-03-17T19:09:55.997Z,4.43
2023-03-17T19:12:23.305Z,4.35
2023-03-17T19:14:50.614Z,4.30
2023-03-17T19:17:18.265Z,4.29
2023-03-17T19:19:45.662Z,4.24
2023-03-17T19:22:12.604Z,4.16
2023-03-17T19:24:41.231Z,4.04
2023-03-17T19:27:08.556Z,4.01
2023-03-17T19:29:35.726Z,3.95
2023-03-17T19:32:02.567Z,3.87
2023-03-17T19:34:29.760Z,3.81
2023-03-17T19:36:56.653Z,3.74
2023-03-17T19:39:23.899Z,3.65
2023-03-17T19:41:55.039Z,3.63
2023-03-17T19:44:22.588Z,3.63
2023-03-17T19:46:49.980Z,3.57
2023-03-17T19:49:17.769Z,3.54
2023-03-17T19:51:44.740Z,3.58
2023-03-17T19:54:12.914Z,3.60
2023-03-17T19:56:39.903Z,3.64
2023-03-17T19:59:07.578Z,3.57
2023-03-17T20:01:34.965Z,3.58
2023-03-17T20:04:02.243Z,3.51
2023-03-17T20:06:31.365Z,3.50
2023-03-17T20:08:58.530Z,3.47
2023-03-17T20:11:25.740Z,3.41
2023-03-17T20:13:52.934Z,3.40
2023-03-17T20:16:19.886Z,3.46
2023-03-17T20:18:47.098Z,3.47
2023-03-17T20:21:14.104Z,3.41
2023-03-17T20:23:41.422Z,3.36
2023-03-17T20:26:09.323Z,3.33
2023-03-17T20:28:36.994Z,3.27
2023-03-17T20:31:04.783Z,3.28
2023-03-17T20:33:33.538Z,3.30
2023-03-17T20:36:01.994Z,3.27
2023-03-17T20:38:31.060Z,3.27
2023-03-17T20:41:08.785Z,3.29
2023-03-17T20:43:37.505Z,3.28
2023-03-17T20:46:09.106Z,3.25
2023-03-17T20:48:37.311Z,3.27
2023-03-17T20:51:06.411Z,3.33
2023-03-17T20:53:34.491Z,3.32
2023-03-17T20:56:01.416Z,3.31
2023-03-17T20:58:29.090Z,3.31
2023-03-17T21:00:57.160Z,3.28
2023-03-17T21:03:24.460Z,3.24
2023-03-17T21:05:51.609Z,3.20
2023-03-17T21:08:19.155Z,3.21
2023-03-17T21:10:46.248Z,3.21
2023-03-17T21:13:13.465Z,3.15
2023-03-17T21:15:41.217Z,3.13
2023-03-17T21:18:09.058Z,3.17
2023-03-17T21:20:36.665Z,3.19
2023-03-17T21:23:07.930Z,3.21
2023-03-17T21:25:38.153Z,3.20
2023-03-17T21:28:05.569Z,3.19
2023-03-17T21:30:34.144Z,3.21
2023-03-17T21:33:01.651Z,3.13
2023-03-17T21:35:30.555Z,3.07
2023-03-17T21:37:57.844Z,2.98
2023-03-17T21:40:26.207Z,2.99
2023-03-17T21:42:53.577Z,2.92
2023-03-17T21:45:20.575Z,2.90
2023-03-17T21:47:48.426Z,2.87
2023-03-17T21:50:17.751Z,2.87
2023-03-17T21:52:45.644Z,2.88
2023-03-17T21:55:12.842Z,2.89
2023-03-17T21:57:40.214Z,2.91
2023-03-17T22:00:09.730Z,2.82
2023-03-17T22:02:37.199Z,2.82
2023-03-17T22:05:04.994Z,2.75
2023-03-17T22:07:33.004Z,2.64
2023-03-17T22:10:01.022Z,2.52
2023-03-17T22:12:28.816Z,2.41
2023-03-17T22:14:58.810Z,2.31
2023-03-17T22:17:26.137Z,2.23
2023-03-17T22:19:53.338Z,2.22
2023-03-17T22:22:21.221Z,2.17
2023-03-17T22:24:48.275Z,2.10
2023-03-17T22:27:17.044Z,2.11
2023-03-17T22:29:44.543Z,2.15
2023-03-17T22:32:11.819Z,2.14
2023-03-17T22:34:38.750Z,2.14
2023-03-17T22:37:07.233Z,2.06
2023-03-17T22:39:34.720Z,2.09
2023-03-17T22:42:02.188Z,2.10
2023-03-17T22:44:29.141Z,2.11
2023-03-17T22:46:56.636Z,2.07
2023-03-17T22:49:23.927Z,2.09
2023-03-17T22:51:51.150Z,2.02
2023-03-17T22:54:18.852Z,1.98
2023-03-17T22:56:46.110Z,2.01
2023-03-17T22:59:12.952Z,2.02
2023-03-17T23:01:40.352Z,1.97
2023-03-17T23:04:07.872Z,1.95
2023-03-17T23:06:36.771Z,1.91
2023-03-17T23:09:04.958Z,1.93
2023-03-17T23:11:32.400Z,1.90
2023-03-17T23:13:59.362Z,1.96
2023-03-17T23:16:27.312Z,1.94
2023-03-17T23:18:54.623Z,1.85
2023-03-17T23:21:33.783Z,1.84
2023-03-17T23:24:01.679Z,1.91
2023-03-17T23:26:29.225Z,1.87
2023-03-17T23:28:56.637Z,1.81
2023-03-17T23:31:24.803Z,1.78
2023-03-17T23:33:52.771Z,1.69
2023-03-17T23:36:20.141Z,1.74
2023-03-17T23:38:48.668Z,1.85
2023-03-17T23:41:16.448Z,1.93
2023-03-17T23:43:44.127Z,1.98
2023-03-17T23:46:13.940Z,1.99
2023-03-17T23:48:42.642Z,2.03
2023-03-17T23:51:12.172Z,2.15
2023-03-17T23:53:42.305Z,2.25
2023-03-17T23:56:11.572Z,2.33
2023-03-17T23:58:39.234Z,2.36
